Airfield :







YOU CAN JOIN US ON...

 
LOGIN :

Register | Disclaimer

   EN    FR    IT 

 









Legend :    VFR   Marginal VFR   IFR   Intensive IFR   Very Intensive IFR
Visi :
Ceiling :
>= 8 km
>= 3000ft
5 to 8 km
1000 to 3000 ft
1500m to 5 km
500 to 1000 ft
800 to 1500m
200 to 500 ft
< 800m
< 200 ft
Symbols :   Thunderstorms  Fog  Heavy snow  Heavy precipitations  Wind > 20 kt






- Airport Elevation : 342 ft


KCON - Concord Municipal

CURRENT METAR :
  • 301551Z AUTO 32009KT 10SM FEW036 FEW047 SCT060 24/16 A2969 RMK AO2 SLP052 T02390156

EXPIRED METARs :
  • 301451Z AUTO 10SM FEW030 SCT035 23/16 A2969 RMK AO2 SLP053 T02280156 53002
  • 301351Z AUTO 31006KT 10SM CLR 22/16 A2968 RMK AO2 SLP051 T02170156

TAF KCON
Valid from the 30 at 12:00 until the 31 at 12:00 UTC


301133Z 3012/3112 30008KT P6SM FEW030
FM301600 31010G17KT P6SM SCT040
FM301900 31014G23KT P6SM FEW060
FM310000 30008KT P6SM FEW150
KZBW FIR / North America



MET'MAP, your aeronautical weather chart ! - Copyright ORBIFLY December 2007 - Disclaimer

ORBIFLY MET'MAP TEAM :

Programming & Development : Alexandra Zaïnal
Concept & original design : Baudouin d'Aumeries
Assistance for programming : Marc-Olivier Méhu
Technical & hardware support : Manuel Goepfert

Contact : metmap@orbifly.com




SOURCES & CREDITS :

   NOAA